Time;durP1;ratioP1;P1;durP2;ratioP2;P2;SDS_P1;SDS_P2;PMS_P1;PMS_P2;Temp;Humidity;BMP_temperature;BMP_pressure;BME280_temperature;BME280_humidity;BME280_pressure;Samples;Min_cycle;Max_cycle;Signal;HPM_P1;HPM_P2
2021/08/05 00:02:07;;;;;;;3.70;3.40;;;15.80;99.90;;;;;;4906009;29;20219;-77
2021/08/05 00:04:33;;;;;;;6.50;4.20;;;15.80;99.90;;;;;;4903988;29;20204;-77
2021/08/05 00:07:00;;;;;;;7.20;6.60;;;15.80;99.90;;;;;;4905046;29;20235;-77
2021/08/05 00:09:27;;;;;;;7.77;7.27;;;15.80;99.90;;;;;;4903231;29;20226;-76
2021/08/05 00:11:54;;;;;;;4.70;4.17;;;15.70;99.90;;;;;;4901888;29;20250;-77
2021/08/05 00:14:20;;;;;;;4.93;4.23;;;15.70;99.90;;;;;;4904702;29;20658;-77
2021/08/05 00:16:49;;;;;;;4.37;3.97;;;15.70;99.90;;;;;;4905499;29;20717;-77
2021/08/05 00:19:16;;;;;;;4.73;3.57;;;15.70;99.90;;;;;;4907774;29;20211;-77
2021/08/05 00:21:43;;;;;;;4.37;3.97;;;15.70;99.90;;;;;;4906533;29;20220;-77
2021/08/05 00:24:10;;;;;;;4.57;4.17;;;15.70;99.90;;;;;;4906667;29;20204;-76
2021/08/05 00:26:37;;;;;;;3.87;3.57;;;15.70;99.90;;;;;;4902906;29;20234;-77
2021/08/05 00:29:04;;;;;;;4.30;3.90;;;15.70;99.90;;;;;;4904810;29;20718;-77
2021/08/05 00:31:31;;;;;;;4.10;3.70;;;15.70;99.90;;;;;;4902752;29;20235;-76
2021/08/05 00:34:00;;;;;;;4.30;3.90;;;15.70;99.90;;;;;;4903065;29;20281;-78
2021/08/05 00:36:28;;;;;;;4.50;3.90;;;15.80;99.90;;;;;;4903856;29;20234;-76
2021/08/05 00:38:55;;;;;;;3.97;3.67;;;15.70;99.90;;;;;;4898467;29;20227;-76
2021/08/05 00:41:22;;;;;;;4.30;3.73;;;15.70;99.90;;;;;;4906458;29;20430;-77
2021/08/05 00:43:49;;;;;;;4.00;3.60;;;15.70;99.90;;;;;;4903805;29;20607;-76
2021/08/05 00:46:16;;;;;;;5.67;5.17;;;15.70;99.90;;;;;;4903744;29;20657;-76
2021/08/05 00:48:43;;;;;;;6.20;5.60;;;15.70;99.90;;;;;;4904452;29;20216;-77
2021/08/05 00:51:12;;;;;;;5.30;4.80;;;15.70;99.90;;;;;;4897366;29;20245;-76
2021/08/05 00:53:40;;;;;;;5.67;5.17;;;15.60;99.90;;;;;;4905722;29;20222;-77
2021/08/05 00:56:07;;;;;;;6.90;6.20;;;15.60;99.90;;;;;;4901121;29;20203;-77
2021/08/05 00:58:34;;;;;;;6.20;5.70;;;15.60;99.90;;;;;;4898355;29;20220;-77
2021/08/05 01:01:07;;;;;;;6.63;6.13;;;15.60;99.90;;;;;;4906187;29;20594;-77
2021/08/05 01:03:40;;;;;;;6.00;5.50;;;15.60;99.90;;;;;;4901469;29;20193;-77
2021/08/05 01:06:18;;;;;;;6.67;5.97;;;15.60;99.90;;;;;;4902838;29;20288;-77
2021/08/05 01:08:55;;;;;;;10.10;9.40;;;15.60;99.90;;;;;;4902781;29;20244;-76
2021/08/05 01:11:26;;;;;;;9.30;8.70;;;15.60;99.90;;;;;;4904177;29;20185;-76
2021/08/05 01:13:56;;;;;;;9.37;8.77;;;15.60;99.90;;;;;;4907044;29;20224;-77
2021/08/05 01:16:26;;;;;;;9.10;8.57;;;15.60;99.90;;;;;;4902926;29;20260;-76
2021/08/05 01:18:58;;;;;;;9.10;8.50;;;15.60;99.90;;;;;;4904513;29;20224;-76
2021/08/05 01:21:37;;;;;;;9.77;9.07;;;15.60;99.90;;;;;;4904933;29;20204;-77
2021/08/05 01:24:07;;;;;;;9.67;9.00;;;15.60;99.90;;;;;;4900208;29;20192;-76
2021/08/05 01:27:00;;;;;;;9.13;8.47;;;15.50;99.90;;;;;;4907214;29;20200;-78
2021/08/05 01:29:32;;;;;;;9.63;8.93;;;15.50;99.90;;;;;;4895161;29;20223;-77
2021/08/05 01:32:00;;;;;;;7.87;7.37;;;15.50;99.90;;;;;;4893323;29;20338;-77
2021/08/05 01:34:28;;;;;;;9.07;8.47;;;15.50;99.90;;;;;;4900321;29;20287;-76
2021/08/05 01:36:55;;;;;;;10.30;9.40;;;15.50;99.90;;;;;;4905650;29;20229;-76
2021/08/05 01:39:22;;;;;;;10.53;9.57;;;15.50;99.90;;;;;;4928563;23;20276;-79
2021/08/05 01:41:50;;;;;;;11.10;10.30;;;15.50;99.90;;;;;;4908648;29;20211;-78
2021/08/05 01:44:20;;;;;;;10.80;9.90;;;15.50;99.90;;;;;;4908220;29;20192;-78
2021/08/05 01:46:48;;;;;;;10.90;10.10;;;15.50;99.90;;;;;;4909903;29;20207;-78
2021/08/05 01:49:16;;;;;;;11.00;10.30;;;15.40;99.90;;;;;;4908795;29;20217;-78
2021/08/05 01:51:44;;;;;;;10.47;9.80;;;15.40;99.90;;;;;;4910478;29;20200;-79
2021/08/05 01:54:11;;;;;;;10.00;9.30;;;15.40;99.90;;;;;;4912198;29;20227;-79
2021/08/05 01:56:38;;;;;;;10.20;9.60;;;15.30;99.90;;;;;;4912014;29;20210;-78
2021/08/05 01:59:05;;;;;;;9.40;8.80;;;15.40;99.90;;;;;;4906243;29;20238;-77
2021/08/05 02:01:33;;;;;;;11.87;11.07;;;15.40;99.90;;;;;;4904919;29;20204;-79
2021/08/05 02:04:08;;;;;;;11.40;10.70;;;15.40;99.90;;;;;;4913116;29;20192;-77
2021/08/05 02:06:41;;;;;;;10.80;10.10;;;15.40;99.90;;;;;;4907612;29;20199;-78
2021/08/05 02:09:15;;;;;;;9.97;9.27;;;15.30;99.90;;;;;;4908178;29;20220;-78
2021/08/05 02:11:47;;;;;;;11.27;10.53;;;15.30;99.90;;;;;;4910359;29;20213;-79
2021/08/05 02:14:16;;;;;;;9.80;9.10;;;15.30;99.90;;;;;;4910533;29;20693;-78
2021/08/05 02:16:46;;;;;;;9.67;9.07;;;15.30;99.90;;;;;;4908691;29;20215;-77
2021/08/05 02:19:16;;;;;;;10.73;10.03;;;15.30;99.90;;;;;;4907652;29;20225;-78
2021/08/05 02:21:44;;;;;;;10.80;10.10;;;15.40;99.90;;;;;;4911990;29;20207;-78
2021/08/05 02:24:12;;;;;;;10.80;10.10;;;15.40;99.90;;;;;;4908484;29;20276;-78
2021/08/05 02:26:40;;;;;;;9.60;8.90;;;15.30;99.90;;;;;;4910070;29;20655;-78
2021/08/05 02:29:08;;;;;;;9.47;8.87;;;15.40;99.90;;;;;;4911327;29;20693;-78
2021/08/05 02:31:37;;;;;;;10.63;9.93;;;15.30;99.90;;;;;;4911889;29;20192;-79
2021/08/05 02:34:08;;;;;;;10.13;9.43;;;15.30;99.90;;;;;;4907570;29;20311;-78
2021/08/05 02:36:35;;;;;;;9.87;9.17;;;15.30;99.90;;;;;;4902229;29;20204;-80
2021/08/05 02:39:02;;;;;;;8.87;8.27;;;15.30;99.90;;;;;;4912655;29;20282;-80
2021/08/05 02:41:29;;;;;;;9.57;8.77;;;15.30;99.90;;;;;;4901737;29;20213;-80
2021/08/05 02:43:57;;;;;;;8.87;8.27;;;15.40;99.90;;;;;;4907153;29;20252;-81
2021/08/05 02:46:25;;;;;;;9.73;9.03;;;15.30;99.90;;;;;;4904632;29;20206;-80
2021/08/05 02:48:54;;;;;;;9.60;8.90;;;15.30;99.90;;;;;;4908915;29;20215;-79
2021/08/05 02:51:23;;;;;;;10.13;9.33;;;15.40;99.90;;;;;;4902800;29;20759;-79
2021/08/05 02:53:51;;;;;;;8.27;7.67;;;15.40;99.90;;;;;;4895438;29;20216;-79
2021/08/05 02:56:19;;;;;;;9.10;8.50;;;15.40;99.90;;;;;;4895764;29;20197;-80
2021/08/05 02:58:46;;;;;;;11.60;10.80;;;15.40;99.90;;;;;;4902496;29;20700;-79
2021/08/05 03:01:15;;;;;;;12.90;12.00;;;15.50;99.90;;;;;;4900871;29;20228;-79
2021/08/05 03:03:42;;;;;;;11.13;10.33;;;15.50;99.90;;;;;;4903252;29;20219;-79
2021/08/05 03:06:10;;;;;;;11.50;10.70;;;15.50;99.90;;;;;;4905232;29;20220;-81
2021/08/05 03:08:42;;;;;;;11.80;11.00;;;15.50;99.90;;;;;;4908376;29;20228;-79
2021/08/05 03:11:09;;;;;;;10.60;9.90;;;15.50;99.90;;;;;;4908408;29;20222;-80
2021/08/05 03:13:36;;;;;;;11.80;11.00;;;15.50;99.90;;;;;;4906586;29;20244;-82
2021/08/05 03:16:03;;;;;;;13.50;12.70;;;15.50;99.90;;;;;;4922400;29;20273;-80
2021/08/05 03:18:30;;;;;;;13.03;12.00;;;15.50;99.90;;;;;;4906094;29;20287;-77
2021/08/05 03:20:57;;;;;;;12.63;11.60;;;15.50;99.90;;;;;;4898484;29;20204;-80
2021/08/05 03:23:23;;;;;;;12.47;11.57;;;15.60;99.90;;;;;;4908400;29;20193;-80
2021/08/05 03:25:51;;;;;;;10.73;10.00;;;15.50;99.90;;;;;;4895610;29;20207;-78
2021/08/05 03:28:18;;;;;;;10.90;10.10;;;15.50;99.90;;;;;;4902702;29;20202;-78
2021/08/05 03:30:45;;;;;;;12.10;11.23;;;15.60;99.90;;;;;;4902166;29;20208;-78
2021/08/05 03:33:12;;;;;;;12.50;11.50;;;15.50;99.90;;;;;;4910091;29;20279;-78
2021/08/05 03:35:39;;;;;;;12.27;11.37;;;15.60;99.90;;;;;;4902873;29;20663;-78
2021/08/05 03:38:06;;;;;;;10.37;9.57;;;15.60;99.90;;;;;;4909544;29;20227;-78
2021/08/05 03:40:33;;;;;;;9.17;8.37;;;15.60;99.90;;;;;;4904443;29;20193;-78
2021/08/05 03:43:01;;;;;;;8.17;7.47;;;15.60;99.90;;;;;;4907613;29;20243;-77
2021/08/05 03:45:28;;;;;;;5.87;5.27;;;15.60;99.90;;;;;;4906733;29;20261;-78
2021/08/05 03:47:55;;;;;;;5.43;4.80;;;15.60;99.90;;;;;;4906684;29;20228;-78
2021/08/05 03:50:22;;;;;;;5.03;4.17;;;15.60;99.90;;;;;;4906619;29;20737;-78
2021/08/05 03:52:48;;;;;;;5.73;4.53;;;15.60;99.90;;;;;;4905901;29;20200;-77
2021/08/05 03:55:15;;;;;;;4.90;4.40;;;15.60;99.90;;;;;;4908945;29;20212;-78
2021/08/05 03:57:43;;;;;;;5.60;4.53;;;15.60;99.90;;;;;;4898791;29;20232;-78
2021/08/05 04:00:13;;;;;;;5.13;4.57;;;15.70;99.90;;;;;;4906062;29;20229;-78
2021/08/05 04:02:40;;;;;;;5.67;4.47;;;15.60;99.90;;;;;;4905877;29;20569;-78
2021/08/05 04:05:07;;;;;;;6.33;5.07;;;15.60;99.90;;;;;;4906713;29;20257;-77
2021/08/05 04:07:34;;;;;;;6.37;5.37;;;15.60;99.90;;;;;;4905958;29;20197;-78
2021/08/05 04:10:01;;;;;;;5.83;5.23;;;15.60;99.90;;;;;;4909216;29;20216;-78
2021/08/05 04:12:28;;;;;;;6.00;4.70;;;15.60;99.90;;;;;;4907057;29;20681;-78
2021/08/05 04:14:55;;;;;;;5.67;5.07;;;15.50;99.90;;;;;;4904142;29;20285;-78
2021/08/05 04:17:23;;;;;;;5.70;5.10;;;15.60;99.90;;;;;;4908944;29;20200;-77
2021/08/05 04:19:50;;;;;;;6.93;5.30;;;15.60;99.90;;;;;;4906807;29;20247;-78
2021/08/05 04:22:17;;;;;;;5.23;4.73;;;15.50;99.90;;;;;;4909301;29;20199;-78
2021/08/05 04:24:44;;;;;;;6.10;4.87;;;15.50;99.90;;;;;;4907601;29;20192;-78
2021/08/05 04:27:11;;;;;;;5.33;4.83;;;15.60;99.90;;;;;;4907333;29;20795;-78
2021/08/05 04:29:37;;;;;;;5.67;5.13;;;15.60;99.90;;;;;;4898758;29;20269;-78
2021/08/05 04:32:05;;;;;;;5.03;4.50;;;15.60;99.90;;;;;;4907201;29;20192;-77
2021/08/05 04:34:33;;;;;;;4.70;4.30;;;15.60;99.90;;;;;;4905913;29;20208;-78
2021/08/05 04:36:59;;;;;;;5.40;4.57;;;15.70;99.90;;;;;;4901372;29;20188;-77
2021/08/05 04:39:27;;;;;;;4.93;4.47;;;15.70;99.90;;;;;;4908195;29;20283;-78
2021/08/05 04:41:54;;;;;;;10.97;10.17;;;15.70;99.90;;;;;;4905804;29;20195;-77
2021/08/05 04:44:21;;;;;;;13.93;12.93;;;15.80;99.90;;;;;;4902198;29;20246;-78
2021/08/05 04:46:48;;;;;;;10.87;10.03;;;15.80;99.90;;;;;;4904177;29;20248;-78
2021/08/05 04:49:15;;;;;;;13.70;12.70;;;15.80;99.90;;;;;;4902980;29;20240;-78
2021/08/05 04:51:43;;;;;;;13.60;12.70;;;15.90;99.90;;;;;;4907259;29;20204;-78
2021/08/05 04:54:10;;;;;;;14.60;13.47;;;15.90;99.90;;;;;;4906978;29;20248;-78
2021/08/05 04:56:37;;;;;;;14.03;13.00;;;15.90;99.90;;;;;;4906713;29;20299;-78
2021/08/05 04:59:04;;;;;;;14.00;13.00;;;15.90;99.90;;;;;;4902299;29;20655;-78
2021/08/05 05:01:31;;;;;;;14.83;13.77;;;15.90;99.90;;;;;;4900004;29;20206;-77
2021/08/05 05:03:57;;;;;;;13.97;12.97;;;15.90;99.90;;;;;;4899370;29;20700;-78
2021/08/05 05:06:24;;;;;;;12.10;11.30;;;16.00;99.90;;;;;;4903914;29;20201;-78
2021/08/05 05:08:52;;;;;;;13.00;12.10;;;16.00;99.90;;;;;;4906133;29;20248;-78
2021/08/05 05:11:19;;;;;;;14.07;12.73;;;16.00;99.90;;;;;;4912061;29;20196;-78
2021/08/05 05:13:46;;;;;;;12.37;11.47;;;16.00;99.90;;;;;;4906711;29;20637;-78
2021/08/05 05:16:13;;;;;;;11.47;10.70;;;16.00;99.90;;;;;;4903261;29;20207;-77
2021/08/05 05:18:41;;;;;;;13.63;12.73;;;16.00;99.90;;;;;;4908442;29;20217;-78
2021/08/05 05:21:08;;;;;;;10.73;9.87;;;16.10;99.90;;;;;;4909455;29;20221;-78
2021/08/05 05:23:35;;;;;;;9.40;8.50;;;16.20;99.90;;;;;;4907622;29;20194;-78
2021/08/05 05:26:04;;;;;;;5.03;4.43;;;16.20;99.90;;;;;;4909641;29;20205;-78
2021/08/05 05:28:31;;;;;;;5.23;4.43;;;16.20;99.90;;;;;;4908690;29;20615;-78
2021/08/05 05:30:59;;;;;;;8.10;7.50;;;16.30;99.90;;;;;;4908033;29;20192;-78
2021/08/05 05:33:26;;;;;;;5.17;4.77;;;16.30;99.90;;;;;;4909168;29;20221;-78
2021/08/05 05:35:54;;;;;;;11.30;10.30;;;16.30;99.90;;;;;;4910184;29;20221;-78
2021/08/05 05:38:21;;;;;;;12.00;11.07;;;16.40;99.90;;;;;;4907903;29;20225;-78
2021/08/05 05:40:48;;;;;;;13.40;12.50;;;16.50;99.90;;;;;;4919338;29;20232;-78
2021/08/05 05:43:16;;;;;;;13.77;12.77;;;16.50;99.90;;;;;;4920087;29;20202;-78
2021/08/05 05:45:44;;;;;;;12.10;11.30;;;16.50;99.90;;;;;;4919848;29;20222;-78
2021/08/05 05:48:11;;;;;;;11.03;10.13;;;16.50;99.90;;;;;;4920535;29;20198;-77
2021/08/05 05:50:38;;;;;;;12.30;11.40;;;16.60;99.90;;;;;;4919989;29;20213;-78
2021/08/05 05:53:06;;;;;;;12.47;11.50;;;16.60;99.90;;;;;;4919962;29;20194;-78
2021/08/05 05:55:33;;;;;;;5.37;4.87;;;16.70;99.90;;;;;;4919659;29;20631;-77
2021/08/05 05:58:01;;;;;;;5.53;4.50;;;16.80;99.90;;;;;;4918868;29;20204;-78
2021/08/05 06:00:29;;;;;;;4.93;4.47;;;16.90;99.90;;;;;;4912797;29;20649;-78
2021/08/05 06:02:56;;;;;;;5.83;5.27;;;17.00;99.90;;;;;;4909365;29;20206;-78
2021/08/05 06:05:23;;;;;;;5.00;4.60;;;17.10;99.90;;;;;;4909178;29;20227;-78
2021/08/05 06:07:52;;;;;;;12.30;11.50;;;17.20;99.90;;;;;;4904941;29;20221;-78
2021/08/05 06:10:20;;;;;;;11.13;10.43;;;17.30;99.90;;;;;;4912207;29;20272;-78
2021/08/05 06:12:47;;;;;;;11.97;11.07;;;17.40;99.90;;;;;;4906165;29;20225;-77
2021/08/05 06:15:16;;;;;;;11.50;10.63;;;17.30;99.90;;;;;;4909512;29;20221;-77
2021/08/05 06:17:45;;;;;;;4.87;4.40;;;17.30;99.90;;;;;;4909961;29;20258;-78
2021/08/05 06:20:13;;;;;;;4.87;3.90;;;17.30;99.90;;;;;;4908029;29;20740;-78
2021/08/05 06:22:41;;;;;;;11.17;10.47;;;17.50;99.90;;;;;;4907716;29;20209;-78
2021/08/05 06:25:09;;;;;;;4.20;3.80;;;17.70;99.90;;;;;;4908065;29;20265;-79
2021/08/05 06:27:37;;;;;;;8.23;7.60;;;17.90;99.90;;;;;;4909816;29;20202;-78
2021/08/05 06:30:05;;;;;;;8.30;7.70;;;18.00;99.90;;;;;;4905511;29;20704;-78
2021/08/05 06:32:31;;;;;;;6.67;6.07;;;18.20;99.90;;;;;;4913460;29;20222;-78
2021/08/05 06:35:00;;;;;;;9.43;8.83;;;18.40;99.90;;;;;;4906441;29;20219;-78
2021/08/05 06:37:27;;;;;;;5.00;4.13;;;18.50;99.90;;;;;;4905052;29;20208;-78
2021/08/05 06:39:54;;;;;;;10.93;10.03;;;18.60;99.90;;;;;;4909356;29;20235;-78
2021/08/05 06:42:21;;;;;;;6.80;6.30;;;18.90;99.90;;;;;;4908439;29;20686;-78
2021/08/05 06:44:48;;;;;;;5.73;5.23;;;19.30;99.90;;;;;;4912246;29;20196;-78
2021/08/05 06:47:15;;;;;;;7.83;7.17;;;19.50;99.90;;;;;;4908825;29;20248;-78
2021/08/05 06:49:42;;;;;;;10.70;10.00;;;19.90;99.90;;;;;;4906940;29;20291;-77
2021/08/05 06:52:10;;;;;;;12.20;11.37;;;20.10;99.90;;;;;;4909682;29;20201;-78
2021/08/05 06:54:37;;;;;;;9.37;8.67;;;20.40;99.90;;;;;;4909349;29;20225;-79
2021/08/05 06:57:04;;;;;;;10.37;9.67;;;20.80;99.90;;;;;;4910168;29;20238;-79
2021/08/05 06:59:31;;;;;;;12.00;11.23;;;20.90;99.90;;;;;;4909961;29;20223;-78
2021/08/05 07:01:58;;;;;;;12.50;11.60;;;21.10;99.90;;;;;;4902509;29;20720;-78
2021/08/05 07:04:25;;;;;;;11.17;10.37;;;21.10;99.90;;;;;;4909554;29;20203;-78
2021/08/05 07:06:52;;;;;;;10.70;10.00;;;21.00;99.90;;;;;;4904679;29;20207;-79
2021/08/05 07:09:20;;;;;;;9.13;8.50;;;20.90;99.90;;;;;;4906133;29;20232;-78
2021/08/05 07:11:47;;;;;;;10.47;9.80;;;20.80;99.90;;;;;;4908487;29;20256;-78
2021/08/05 07:14:13;;;;;;;10.03;9.33;;;20.90;99.90;;;;;;4907112;29;20208;-78
2021/08/05 07:16:40;;;;;;;9.57;8.97;;;20.90;99.90;;;;;;4909458;29;20237;-79
2021/08/05 07:19:07;;;;;;;10.53;9.83;;;21.00;99.90;;;;;;4907096;29;20224;-78
2021/08/05 07:21:34;;;;;;;10.83;10.03;;;21.10;99.90;;;;;;4911135;29;20630;-79
2021/08/05 07:24:00;;;;;;;9.70;9.10;;;21.30;99.90;;;;;;4907701;29;20229;-78
2021/08/05 07:26:29;;;;;;;9.70;9.10;;;21.40;99.90;;;;;;4904375;29;20197;-78
2021/08/05 07:28:56;;;;;;;9.43;8.83;;;21.60;99.90;;;;;;4909423;29;20212;-79
2021/08/05 07:31:23;;;;;;;9.97;9.33;;;22.00;99.90;;;;;;4908265;29;20224;-78
2021/08/05 07:33:50;;;;;;;9.43;8.83;;;22.60;99.90;;;;;;4911362;29;20199;-78
2021/08/05 07:36:17;;;;;;;8.80;8.20;;;22.90;99.90;;;;;;4909515;29;20204;-78
2021/08/05 07:38:44;;;;;;;10.33;9.63;;;22.90;99.90;;;;;;4935531;23;20219;-81
2021/08/05 07:41:11;;;;;;;10.13;9.53;;;23.20;99.90;;;;;;4909633;29;20192;-79
2021/08/05 07:43:40;;;;;;;6.63;6.13;;;23.20;99.90;;;;;;4904413;29;20208;-80
2021/08/05 07:46:06;;;;;;;4.40;4.00;;;23.30;99.90;;;;;;4922362;29;20266;-80
2021/08/05 07:48:34;;;;;;;10.30;9.60;;;23.60;99.90;;;;;;4919312;29;20225;-81
2021/08/05 07:51:02;;;;;;;10.70;10.00;;;23.80;99.90;;;;;;4899607;29;20196;-81
2021/08/05 07:53:29;;;;;;;9.60;9.00;;;23.90;99.90;;;;;;4905682;29;20271;-79
2021/08/05 07:55:56;;;;;;;11.47;10.77;;;23.90;99.90;;;;;;4907253;29;20216;-81
2021/08/05 07:58:23;;;;;;;4.93;4.53;;;23.70;99.90;;;;;;4908253;29;20193;-81
2021/08/05 08:00:51;;;;;;;9.37;8.67;;;23.60;99.90;;;;;;4902974;29;20220;-80
2021/08/05 08:03:17;;;;;;;9.93;9.30;;;23.60;99.90;;;;;;4904433;29;20226;-79
2021/08/05 08:05:45;;;;;;;8.80;8.20;;;23.50;99.90;;;;;;4905243;29;20197;-80
2021/08/05 08:08:14;;;;;;;4.20;3.60;;;23.60;99.90;;;;;;4906451;29;20198;-79
2021/08/05 08:10:41;;;;;;;4.77;3.50;;;23.50;99.90;;;;;;4906550;29;20270;-80
2021/08/05 08:13:07;;;;;;;7.87;7.17;;;23.50;99.90;;;;;;4900445;29;20197;-80
2021/08/05 08:15:34;;;;;;;6.27;5.87;;;23.40;99.90;;;;;;4905358;29;20217;-80
2021/08/05 08:18:03;;;;;;;10.83;10.17;;;23.40;99.90;;;;;;4916330;29;20257;-79
2021/08/05 08:20:31;;;;;;;10.37;9.67;;;23.30;99.90;;;;;;4909896;29;20598;-81
2021/08/05 08:22:58;;;;;;;10.37;9.67;;;23.20;99.90;;;;;;4897752;29;20192;-81
2021/08/05 08:25:25;;;;;;;10.30;9.70;;;23.10;99.90;;;;;;4907319;29;20204;-79
2021/08/05 08:27:51;;;;;;;10.83;10.13;;;23.00;99.90;;;;;;4907411;29;20246;-80
2021/08/05 08:30:18;;;;;;;10.00;9.40;;;22.90;99.90;;;;;;4904786;29;20219;-80
2021/08/05 08:32:47;;;;;;;10.37;9.70;;;22.90;99.90;;;;;;4906544;29;20187;-80
2021/08/05 08:35:15;;;;;;;9.93;9.23;;;23.10;99.90;;;;;;4907081;29;20216;-79
2021/08/05 08:37:42;;;;;;;10.63;9.83;;;23.40;99.90;;;;;;4907038;29;20725;-79
2021/08/05 08:40:11;;;;;;;9.70;9.07;;;23.60;99.90;;;;;;4903147;29;20232;-80
2021/08/05 08:42:39;;;;;;;9.50;8.90;;;24.00;99.90;;;;;;4900490;29;20201;-80
2021/08/05 08:45:07;;;;;;;10.67;9.93;;;24.30;99.90;;;;;;4903309;29;20705;-80
2021/08/05 08:47:36;;;;;;;5.20;4.80;;;24.40;99.90;;;;;;4903879;29;20202;-80
2021/08/05 08:50:04;;;;;;;2.93;2.73;;;24.90;99.90;;;;;;4903392;29;20219;-80
2021/08/05 08:52:34;;;;;;;4.97;4.60;;;25.00;99.90;;;;;;4903961;29;20541;-79
2021/08/05 08:55:03;;;;;;;5.37;5.07;;;25.10;99.90;;;;;;4907154;29;20642;-79
2021/08/05 08:57:32;;;;;;;3.10;2.80;;;25.10;99.90;;;;;;4909462;29;20548;-79
2021/08/05 09:00:00;;;;;;;5.60;3.10;;;24.80;99.90;;;;;;4897007;29;20215;-80
2021/08/05 09:02:27;;;;;;;4.20;3.90;;;25.10;99.90;;;;;;4911599;29;20892;-79
2021/08/05 09:04:54;;;;;;;5.63;5.23;;;25.30;99.90;;;;;;4905619;29;20199;-79
2021/08/05 09:07:23;;;;;;;9.70;9.10;;;25.30;99.90;;;;;;4897407;29;20204;-80
2021/08/05 09:09:52;;;;;;;9.67;9.10;;;25.40;99.90;;;;;;4908830;29;20319;-79
2021/08/05 09:12:20;;;;;;;6.57;6.17;;;25.60;99.90;;;;;;4911564;29;20264;-79
2021/08/05 09:14:48;;;;;;;3.00;2.80;;;25.60;99.90;;;;;;4910279;29;20661;-79
2021/08/05 09:17:21;;;;;;;9.43;8.93;;;25.40;99.90;;;;;;4915017;29;20199;-80
2021/08/05 09:19:50;;;;;;;9.20;8.70;;;25.50;99.90;;;;;;4908220;29;20224;-80
2021/08/05 09:22:36;;;;;;;9.43;8.87;;;25.60;99.90;;;;;;4911430;29;20192;-79
2021/08/05 09:25:32;;;;;;;9.50;8.90;;;25.70;99.90;;;;;;4918287;29;20176;-80
2021/08/05 09:28:02;;;;;;;9.43;8.83;;;26.00;99.90;;;;;;4882882;29;20196;-79
2021/08/05 09:30:31;;;;;;;9.60;9.00;;;26.50;99.90;;;;;;4908389;29;20224;-81
2021/08/05 09:33:05;;;;;;;9.87;9.17;;;26.50;99.90;;;;;;4908446;29;20192;-82
2021/08/05 09:35:32;;;;;;;7.83;7.33;;;26.20;99.90;;;;;;4903703;29;20215;-79
2021/08/05 09:38:22;;;;;;;6.77;6.37;;;25.50;99.90;;;;;;4904715;29;20232;-78
2021/08/05 09:41:09;;;;;;;11.87;11.17;;;25.20;99.90;;;;;;4910242;29;20224;-79
2021/08/05 09:43:37;;;;;;;6.97;6.57;;;25.20;99.90;;;;;;4908269;29;20608;-80
2021/08/05 09:46:04;;;;;;;10.80;10.17;;;25.20;99.90;;;;;;4903420;29;20189;-80
2021/08/05 09:48:38;;;;;;;8.70;8.10;;;25.40;99.90;;;;;;4909391;29;20306;-80
2021/08/05 09:51:10;;;;;;;7.73;7.23;;;25.70;99.90;;;;;;4904949;29;20192;-79
2021/08/05 09:53:53;;;;;;;9.63;9.03;;;25.80;99.90;;;;;;4897138;29;20205;-80
2021/08/05 09:56:21;;;;;;;9.23;8.37;;;25.70;99.90;;;;;;4904999;29;20721;-79
2021/08/05 09:58:48;;;;;;;7.80;7.20;;;25.50;99.90;;;;;;4907477;29;20710;-79
2021/08/05 10:01:16;;;;;;;6.07;5.70;;;25.30;99.90;;;;;;4908029;29;20208;-80
2021/08/05 10:03:43;;;;;;;9.47;8.90;;;25.20;99.90;;;;;;4896542;29;20199;-79
2021/08/05 10:06:09;;;;;;;7.60;7.10;;;25.30;99.90;;;;;;4906247;29;20201;-79
2021/08/05 10:08:39;;;;;;;8.10;7.60;;;25.30;99.90;;;;;;4908275;29;20225;-79
2021/08/05 10:11:07;;;;;;;3.20;2.63;;;25.40;99.90;;;;;;4909808;29;20278;-79
2021/08/05 10:13:36;;;;;;;12.87;12.07;;;25.30;99.90;;;;;;4907607;29;20230;-79
2021/08/05 10:16:04;;;;;;;9.07;8.47;;;25.30;99.90;;;;;;4908784;29;20220;-79
2021/08/05 10:18:32;;;;;;;2.67;2.40;;;25.30;99.90;;;;;;4909862;29;20192;-81
2021/08/05 10:21:02;;;;;;;2.30;2.20;;;25.60;99.90;;;;;;4907752;29;20590;-79
2021/08/05 10:23:29;;;;;;;6.90;6.40;;;25.80;99.90;;;;;;4915458;29;20210;-81
2021/08/05 10:25:58;;;;;;;3.73;3.43;;;25.90;99.90;;;;;;4900892;29;20180;-81
2021/08/05 10:28:26;;;;;;;8.40;7.90;;;25.80;99.90;;;;;;4902856;29;20258;-81
2021/08/05 10:30:56;;;;;;;8.40;8.00;;;25.90;99.90;;;;;;4911844;29;20200;-81
2021/08/05 10:33:23;;;;;;;7.60;7.20;;;25.70;99.90;;;;;;4909222;29;20257;-80
2021/08/05 10:35:51;;;;;;;7.40;7.00;;;25.70;99.90;;;;;;4910266;29;20327;-81
2021/08/05 10:38:19;;;;;;;8.50;8.00;;;25.80;99.90;;;;;;4906638;29;20565;-81
2021/08/05 10:40:48;;;;;;;8.20;7.57;;;25.90;99.90;;;;;;4896492;29;20225;-80
2021/08/05 10:43:15;;;;;;;7.60;7.10;;;26.20;99.90;;;;;;4907448;29;20206;-81
2021/08/05 10:45:43;;;;;;;7.80;7.30;;;26.40;99.90;;;;;;4908447;29;20196;-80
2021/08/05 10:48:12;;;;;;;7.73;7.20;;;26.70;99.90;;;;;;4908810;29;20207;-81
2021/08/05 10:50:41;;;;;;;4.93;4.63;;;26.90;99.90;;;;;;4910307;29;20272;-79
2021/08/05 10:53:13;;;;;;;7.70;7.23;;;26.90;99.90;;;;;;4914209;29;20203;-80
2021/08/05 10:55:41;;;;;;;7.90;7.40;;;26.50;99.90;;;;;;4911962;29;20212;-80
2021/08/05 10:58:19;;;;;;;8.60;8.10;;;26.00;99.90;;;;;;4914091;29;20256;-79
2021/08/05 11:00:54;;;;;;;11.63;10.93;;;25.70;99.90;;;;;;4907775;29;20219;-80
2021/08/05 11:03:49;;;;;;;7.23;6.83;;;25.60;99.90;;;;;;4902986;29;20247;-80
2021/08/05 11:06:30;;;;;;;11.17;10.47;;;25.50;99.90;;;;;;4878997;29;20204;-81
2021/08/05 11:09:26;;;;;;;3.97;3.67;;;25.60;99.90;;;;;;4910009;29;20258;-81
2021/08/05 11:11:53;;;;;;;7.53;7.13;;;25.50;99.90;;;;;;4910073;29;20258;-80
2021/08/05 11:14:40;;;;;;;7.87;7.37;;;25.30;99.90;;;;;;4919587;29;20230;-81
2021/08/05 11:17:07;;;;;;;7.93;7.43;;;25.30;99.90;;;;;;4918043;29;20571;-80
2021/08/05 11:19:42;;;;;;;7.83;7.43;;;25.50;99.90;;;;;;4917965;29;20215;-79
2021/08/05 11:22:46;;;;;;;8.20;7.70;;;25.60;99.90;;;;;;4903054;29;20203;-80
2021/08/05 11:25:13;;;;;;;8.30;7.80;;;25.60;99.90;;;;;;4900017;29;20233;-81
2021/08/05 11:27:45;;;;;;;8.00;7.57;;;25.60;99.90;;;;;;4913066;29;20231;-79
2021/08/05 11:30:47;;;;;;;7.83;7.37;;;25.20;99.90;;;;;;4901312;29;20227;-80
2021/08/05 11:33:49;;;;;;;8.20;7.50;;;25.10;99.90;;;;;;4895557;29;20210;-79
2021/08/05 11:36:23;;;;;;;8.07;7.50;;;25.40;99.90;;;;;;4900574;29;20226;-79
2021/08/05 11:39:09;;;;;;;2.80;2.70;;;25.40;99.90;;;;;;4907032;29;20238;-79
2021/08/05 11:41:40;;;;;;;5.50;5.20;;;25.50;99.90;;;;;;4909308;29;20204;-81
2021/08/05 11:44:30;;;;;;;7.70;7.20;;;25.60;99.90;;;;;;4905482;29;20263;-79
2021/08/05 11:47:15;;;;;;;5.10;4.80;;;25.50;99.90;;;;;;4905713;29;20195;-80
2021/08/05 11:49:44;;;;;;;6.90;6.50;;;25.10;99.90;;;;;;4912250;29;20231;-80
2021/08/05 11:52:14;;;;;;;4.87;4.50;;;24.90;99.90;;;;;;4905228;29;20262;-80
2021/08/05 11:54:43;;;;;;;7.80;7.40;;;24.80;99.90;;;;;;4907737;29;20201;-79
2021/08/05 11:57:11;;;;;;;6.43;6.03;;;24.70;99.90;;;;;;4908121;29;20235;-79
2021/08/05 11:59:40;;;;;;;7.90;7.30;;;24.80;99.90;;;;;;4909806;29;20273;-80
2021/08/05 12:02:09;;;;;;;6.87;6.50;;;24.90;99.90;;;;;;4904575;29;20214;-81
2021/08/05 12:04:37;;;;;;;3.70;3.50;;;25.00;99.90;;;;;;4903858;29;20210;-80
2021/08/05 12:07:22;;;;;;;3.20;3.00;;;25.40;99.90;;;;;;4903991;29;20250;-80
2021/08/05 12:09:51;;;;;;;7.40;7.00;;;25.80;99.90;;;;;;4896677;29;20224;-80
2021/08/05 12:12:18;;;;;;;7.57;7.17;;;26.00;99.90;;;;;;4909064;29;20260;-79
2021/08/05 12:14:53;;;;;;;5.63;5.33;;;26.20;99.90;;;;;;4907574;29;20197;-80
2021/08/05 12:17:31;;;;;;;7.80;7.40;;;26.10;99.90;;;;;;4906850;29;20572;-80
2021/08/05 12:19:58;;;;;;;7.80;7.40;;;26.10;99.90;;;;;;4906951;29;20294;-80
2021/08/05 12:22:35;;;;;;;7.20;6.80;;;26.00;99.90;;;;;;4907245;29;20204;-80
2021/08/05 12:25:06;;;;;;;8.60;8.10;;;26.00;99.90;;;;;;4901813;29;20203;-80
2021/08/05 12:27:33;;;;;;;8.57;7.87;;;26.00;99.90;;;;;;4909312;29;20200;-80
2021/08/05 12:30:06;;;;;;;6.27;5.90;;;25.90;99.90;;;;;;4903929;29;20588;-80
2021/08/05 12:32:34;;;;;;;8.50;8.00;;;25.90;99.90;;;;;;4904537;29;20244;-80
2021/08/05 12:35:01;;;;;;;1.97;1.87;;;26.10;99.90;;;;;;4906839;29;20557;-80
2021/08/05 12:37:28;;;;;;;1.80;1.70;;;26.20;99.90;;;;;;4904196;29;20216;-80
2021/08/05 12:40:08;;;;;;;3.30;3.00;;;26.30;99.90;;;;;;4904183;29;20303;-80
2021/08/05 12:42:37;;;;;;;2.10;2.00;;;26.30;99.90;;;;;;4902850;29;20670;-80
2021/08/05 12:45:04;;;;;;;2.00;1.90;;;26.30;99.90;;;;;;4902146;29;20197;-80
2021/08/05 12:47:31;;;;;;;5.93;5.63;;;26.20;99.90;;;;;;4905297;29;20196;-81
2021/08/05 12:50:04;;;;;;;3.43;3.23;;;26.00;99.90;;;;;;4900848;29;20252;-80
2021/08/05 12:52:39;;;;;;;7.40;6.90;;;25.90;99.90;;;;;;4900906;29;20227;-80